In Rescue
 
Open Full Screen Window  High Contrast Mode
October 19, 2020 7:57 PM EDT
Present Weather: Light Rain
Weather Information
Wind Direction
  ---
Wind Speed
  00 kt (0 mph)
Wind Gust
  00 kt (0 mph)
Altimeter
30.21 in
Visibility
10 SM
Temperature
06° C
43° F
Dewpoint
03° C
37° F
Humidity
81%
1hr Rain Fall
00.00 in.
24hr Rain Fall
00.00 in.
Sky Condition
Overcast @ 4,100 ft
Broken @ 3,200 ft
VFR

METAR KOZW 192357Z AUTO 00000KT 10SM -RA BKN032 OVC041 06/03 A3021 RMK AO2 T00610029 10080 20060

FAA Disclaimer: The data displayed is for advisory purposes only and is not to be used for flight planning or operations.